CheckWX is a tool to help pilots better visualize weather data.  It is not intended as a substitute for an official pre-flight weather briefing.

09:58:07 UTC

CYZX METAR
CFB Greenwood Airport
Greenwood, Canada
Current

58 mins ago

CYZX 210900Z 34002KT 15SM SCT240 M07/M09 A3033 RMK CI3 SLP273
Observed
Mar-21 @ 09:00 UTC
Wind
  • 340° at 2 KTS
Visibility
15 SM
Flight Rules
VFR
Cloud Levels
  • Scattered at 24,000' AGL
Temperature
-7°C / 19°F
Dewpoint
-9°C / 16°F
Humidity
86%
Altimeter
30.33" Hg
Pressure
1027.3 hPa
Previous

2 hours ago

CYZX 210800Z 02002KT 15SM SCT250 M06/M08 A3034 RMK CI3 SLP276
Observed
Mar-21 @ 08:00 UTC
Wind
  • 020° at 2 KTS
Visibility
15 SM
Flight Rules
VFR
Cloud Levels
  • Scattered at 25,000' AGL
Temperature
-6°C / 21°F
Dewpoint
-8°C / 18°F
Humidity
86%
Altimeter
30.34" Hg
Pressure
1027.6 hPa
Previous

3 hours ago

CYZX 210700Z 00000KT 15SM SKC M05/M08 A3034 RMK SLP275
Observed
Mar-21 @ 07:00 UTC
Visibility
15 SM
Flight Rules
VFR
Cloud Levels
  • Clear skies
Temperature
-5°C / 23°F
Dewpoint
-8°C / 18°F
Humidity
80%
Altimeter
30.34" Hg
Pressure
1027.5 hPa